sensor_id;sensor_type;location;lat;lon;timestamp;P1;durP1;ratioP1;P2;durP2;ratioP2
39848;SDS011;25518;47.878;15.914;2023-12-22T00:02:38;0.20;;;0.10;;
39848;SDS011;25518;47.878;15.914;2023-12-22T00:05:29;0.20;;;0.20;;
39848;SDS011;25518;47.878;15.914;2023-12-22T00:08:21;0.43;;;0.20;;
39848;SDS011;25518;47.878;15.914;2023-12-22T00:11:14;0.20;;;0.10;;
39848;SDS011;25518;47.878;15.914;2023-12-22T00:14:05;0.20;;;0.10;;
39848;SDS011;25518;47.878;15.914;2023-12-22T00:16:56;0.22;;;0.20;;
39848;SDS011;25518;47.878;15.914;2023-12-22T00:19:48;0.10;;;0.10;;
39848;SDS011;25518;47.878;15.914;2023-12-22T00:22:39;0.00;;;0.00;;
39848;SDS011;25518;47.878;15.914;2023-12-22T00:25:31;0.00;;;0.00;;
39848;SDS011;25518;47.878;15.914;2023-12-22T00:28:22;0.00;;;0.00;;
39848;SDS011;25518;47.878;15.914;2023-12-22T00:31:13;0.00;;;0.00;;
39848;SDS011;25518;47.878;15.914;2023-12-22T00:34:05;0.00;;;0.00;;
39848;SDS011;25518;47.878;15.914;2023-12-22T00:36:56;0.00;;;0.00;;
39848;SDS011;25518;47.878;15.914;2023-12-22T00:39:47;0.00;;;0.00;;
39848;SDS011;25518;47.878;15.914;2023-12-22T00:42:38;0.00;;;0.00;;
39848;SDS011;25518;47.878;15.914;2023-12-22T00:45:30;0.03;;;0.03;;
39848;SDS011;25518;47.878;15.914;2023-12-22T00:48:21;0.20;;;0.20;;
39848;SDS011;25518;47.878;15.914;2023-12-22T00:51:13;0.60;;;0.30;;
39848;SDS011;25518;47.878;15.914;2023-12-22T00:54:04;0.00;;;0.00;;
39848;SDS011;25518;47.878;15.914;2023-12-22T00:56:55;0.00;;;0.00;;
39848;SDS011;25518;47.878;15.914;2023-12-22T00:59:47;0.60;;;0.10;;
39848;SDS011;25518;47.878;15.914;2023-12-22T01:02:38;0.20;;;0.10;;
39848;SDS011;25518;47.878;15.914;2023-12-22T01:05:30;0.40;;;0.30;;
39848;SDS011;25518;47.878;15.914;2023-12-22T01:08:21;0.08;;;0.08;;
39848;SDS011;25518;47.878;15.914;2023-12-22T01:11:12;1.20;;;0.70;;
39848;SDS011;25518;47.878;15.914;2023-12-22T01:14:04;0.10;;;0.00;;
39848;SDS011;25518;47.878;15.914;2023-12-22T01:16:56;1.10;;;0.30;;
39848;SDS011;25518;47.878;15.914;2023-12-22T01:19:49;0.40;;;0.20;;
39848;SDS011;25518;47.878;15.914;2023-12-22T01:22:41;0.28;;;0.10;;
39848;SDS011;25518;47.878;15.914;2023-12-22T01:25:32;0.50;;;0.25;;
39848;SDS011;25518;47.878;15.914;2023-12-22T01:28:24;0.50;;;0.30;;
39848;SDS011;25518;47.878;15.914;2023-12-22T01:31:15;0.00;;;0.00;;
39848;SDS011;25518;47.878;15.914;2023-12-22T01:34:06;0.05;;;0.05;;
39848;SDS011;25518;47.878;15.914;2023-12-22T01:36:58;0.20;;;0.10;;
39848;SDS011;25518;47.878;15.914;2023-12-22T01:39:49;0.40;;;0.10;;
39848;SDS011;25518;47.878;15.914;2023-12-22T01:42:41;0.05;;;0.00;;
39848;SDS011;25518;47.878;15.914;2023-12-22T01:45:32;0.15;;;0.05;;
39848;SDS011;25518;47.878;15.914;2023-12-22T01:48:24;1.30;;;0.20;;
39848;SDS011;25518;47.878;15.914;2023-12-22T01:51:16;0.15;;;0.08;;
39848;SDS011;25518;47.878;15.914;2023-12-22T01:54:08;1.33;;;0.52;;
39848;SDS011;25518;47.878;15.914;2023-12-22T01:57:01;0.90;;;0.20;;
39848;SDS011;25518;47.878;15.914;2023-12-22T01:59:53;0.50;;;0.00;;
39848;SDS011;25518;47.878;15.914;2023-12-22T02:02:44;0.20;;;0.10;;
39848;SDS011;25518;47.878;15.914;2023-12-22T02:05:36;0.77;;;0.40;;
39848;SDS011;25518;47.878;15.914;2023-12-22T02:08:28;0.50;;;0.17;;
39848;SDS011;25518;47.878;15.914;2023-12-22T02:11:23;0.60;;;0.20;;
39848;SDS011;25518;47.878;15.914;2023-12-22T02:14:18;0.95;;;0.50;;
39848;SDS011;25518;47.878;15.914;2023-12-22T02:20:16;0.75;;;0.30;;
39848;SDS011;25518;47.878;15.914;2023-12-22T02:23:08;1.15;;;0.15;;
39848;SDS011;25518;47.878;15.914;2023-12-22T02:26:03;0.77;;;0.40;;
39848;SDS011;25518;47.878;15.914;2023-12-22T02:29:16;1.60;;;0.30;;
39848;SDS011;25518;47.878;15.914;2023-12-22T02:32:07;1.38;;;0.52;;
39848;SDS011;25518;47.878;15.914;2023-12-22T02:35:07;0.98;;;0.20;;
39848;SDS011;25518;47.878;15.914;2023-12-22T02:38:03;0.20;;;0.00;;
39848;SDS011;25518;47.878;15.914;2023-12-22T02:40:55;0.60;;;0.20;;
39848;SDS011;25518;47.878;15.914;2023-12-22T02:43:47;0.60;;;0.30;;
39848;SDS011;25518;47.878;15.914;2023-12-22T02:46:39;0.30;;;0.10;;
39848;SDS011;25518;47.878;15.914;2023-12-22T02:49:33;2.58;;;0.30;;
39848;SDS011;25518;47.878;15.914;2023-12-22T02:52:24;1.20;;;0.20;;
39848;SDS011;25518;47.878;15.914;2023-12-22T02:55:16;0.90;;;0.28;;
39848;SDS011;25518;47.878;15.914;2023-12-22T02:58:07;0.90;;;0.45;;
39848;SDS011;25518;47.878;15.914;2023-12-22T03:00:59;0.40;;;0.10;;
39848;SDS011;25518;47.878;15.914;2023-12-22T03:03:50;0.80;;;0.20;;
39848;SDS011;25518;47.878;15.914;2023-12-22T03:06:41;1.40;;;0.40;;
39848;SDS011;25518;47.878;15.914;2023-12-22T03:09:33;0.85;;;0.47;;
39848;SDS011;25518;47.878;15.914;2023-12-22T03:12:24;0.70;;;0.10;;
39848;SDS011;25518;47.878;15.914;2023-12-22T03:15:16;2.38;;;0.30;;
39848;SDS011;25518;47.878;15.914;2023-12-22T03:18:07;1.27;;;0.45;;
39848;SDS011;25518;47.878;15.914;2023-12-22T03:20:58;0.95;;;0.30;;
39848;SDS011;25518;47.878;15.914;2023-12-22T03:23:50;0.70;;;0.28;;
39848;SDS011;25518;47.878;15.914;2023-12-22T03:26:41;0.15;;;0.15;;
39848;SDS011;25518;47.878;15.914;2023-12-22T03:29:32;1.33;;;0.70;;
39848;SDS011;25518;47.878;15.914;2023-12-22T03:32:24;0.52;;;0.22;;
39848;SDS011;25518;47.878;15.914;2023-12-22T03:35:15;0.55;;;0.25;;
39848;SDS011;25518;47.878;15.914;2023-12-22T03:38:07;0.75;;;0.40;;
39848;SDS011;25518;47.878;15.914;2023-12-22T03:40:58;0.35;;;0.20;;
39848;SDS011;25518;47.878;15.914;2023-12-22T03:43:50;0.50;;;0.10;;
39848;SDS011;25518;47.878;15.914;2023-12-22T03:46:41;1.38;;;0.30;;
39848;SDS011;25518;47.878;15.914;2023-12-22T03:49:33;0.32;;;0.20;;
39848;SDS011;25518;47.878;15.914;2023-12-22T03:52:24;2.60;;;0.40;;
39848;SDS011;25518;47.878;15.914;2023-12-22T03:55:15;0.70;;;0.52;;
39848;SDS011;25518;47.878;15.914;2023-12-22T03:58:08;1.10;;;0.50;;
39848;SDS011;25518;47.878;15.914;2023-12-22T04:01:01;2.72;;;0.22;;
39848;SDS011;25518;47.878;15.914;2023-12-22T04:03:52;0.97;;;0.50;;
39848;SDS011;25518;47.878;15.914;2023-12-22T04:06:43;0.10;;;0.10;;
39848;SDS011;25518;47.878;15.914;2023-12-22T04:09:36;0.65;;;0.35;;
39848;SDS011;25518;47.878;15.914;2023-12-22T04:12:29;1.55;;;0.40;;
39848;SDS011;25518;47.878;15.914;2023-12-22T04:15:20;0.77;;;0.20;;
39848;SDS011;25518;47.878;15.914;2023-12-22T04:18:12;0.50;;;0.35;;
39848;SDS011;25518;47.878;15.914;2023-12-22T04:21:03;2.88;;;0.60;;
39848;SDS011;25518;47.878;15.914;2023-12-22T04:23:54;0.30;;;0.10;;
39848;SDS011;25518;47.878;15.914;2023-12-22T04:26:46;2.73;;;1.57;;
39848;SDS011;25518;47.878;15.914;2023-12-22T04:29:37;0.40;;;0.20;;
39848;SDS011;25518;47.878;15.914;2023-12-22T04:32:28;0.10;;;0.10;;
39848;SDS011;25518;47.878;15.914;2023-12-22T04:35:20;0.30;;;0.20;;
39848;SDS011;25518;47.878;15.914;2023-12-22T04:38:11;3.05;;;0.82;;
39848;SDS011;25518;47.878;15.914;2023-12-22T04:41:02;3.20;;;0.50;;
39848;SDS011;25518;47.878;15.914;2023-12-22T04:43:54;1.35;;;0.30;;
39848;SDS011;25518;47.878;15.914;2023-12-22T04:46:45;2.05;;;0.70;;
39848;SDS011;25518;47.878;15.914;2023-12-22T04:49:36;1.02;;;0.28;;
39848;SDS011;25518;47.878;15.914;2023-12-22T04:52:28;0.95;;;0.47;;
39848;SDS011;25518;47.878;15.914;2023-12-22T04:55:19;0.30;;;0.20;;
39848;SDS011;25518;47.878;15.914;2023-12-22T04:58:10;0.20;;;0.20;;
39848;SDS011;25518;47.878;15.914;2023-12-22T05:01:02;1.10;;;0.40;;
39848;SDS011;25518;47.878;15.914;2023-12-22T05:03:53;2.40;;;0.70;;
39848;SDS011;25518;47.878;15.914;2023-12-22T05:06:45;1.73;;;0.35;;
39848;SDS011;25518;47.878;15.914;2023-12-22T05:09:36;2.13;;;0.40;;
39848;SDS011;25518;47.878;15.914;2023-12-22T05:12:27;0.40;;;0.30;;
39848;SDS011;25518;47.878;15.914;2023-12-22T05:15:19;1.50;;;0.40;;
39848;SDS011;25518;47.878;15.914;2023-12-22T05:18:10;1.87;;;0.60;;
39848;SDS011;25518;47.878;15.914;2023-12-22T05:21:01;2.08;;;0.40;;
39848;SDS011;25518;47.878;15.914;2023-12-22T05:23:53;4.55;;;0.90;;
39848;SDS011;25518;47.878;15.914;2023-12-22T05:26:45;0.68;;;0.22;;
39848;SDS011;25518;47.878;15.914;2023-12-22T05:29:36;6.13;;;1.67;;
39848;SDS011;25518;47.878;15.914;2023-12-22T05:32:28;2.17;;;0.68;;
39848;SDS011;25518;47.878;15.914;2023-12-22T05:35:20;3.83;;;0.52;;
39848;SDS011;25518;47.878;15.914;2023-12-22T05:38:12;3.10;;;0.47;;
39848;SDS011;25518;47.878;15.914;2023-12-22T05:41:03;6.25;;;0.95;;
39848;SDS011;25518;47.878;15.914;2023-12-22T05:43:56;1.00;;;0.40;;
39848;SDS011;25518;47.878;15.914;2023-12-22T05:46:47;1.30;;;0.30;;
39848;SDS011;25518;47.878;15.914;2023-12-22T05:49:39;0.85;;;0.28;;
39848;SDS011;25518;47.878;15.914;2023-12-22T05:52:31;3.00;;;0.50;;
39848;SDS011;25518;47.878;15.914;2023-12-22T05:55:23;1.85;;;0.90;;
39848;SDS011;25518;47.878;15.914;2023-12-22T05:58:14;0.70;;;0.30;;
39848;SDS011;25518;47.878;15.914;2023-12-22T06:01:06;1.40;;;0.30;;
39848;SDS011;25518;47.878;15.914;2023-12-22T06:03:57;0.63;;;0.20;;
39848;SDS011;25518;47.878;15.914;2023-12-22T06:06:48;2.00;;;0.40;;
39848;SDS011;25518;47.878;15.914;2023-12-22T06:09:40;2.10;;;0.38;;
39848;SDS011;25518;47.878;15.914;2023-12-22T06:12:31;0.50;;;0.40;;
39848;SDS011;25518;47.878;15.914;2023-12-22T06:15:22;2.13;;;0.68;;
39848;SDS011;25518;47.878;15.914;2023-12-22T06:18:15;1.05;;;0.40;;
39848;SDS011;25518;47.878;15.914;2023-12-22T06:21:06;2.45;;;0.60;;
39848;SDS011;25518;47.878;15.914;2023-12-22T06:23:59;3.10;;;0.70;;
39848;SDS011;25518;47.878;15.914;2023-12-22T06:26:50;0.70;;;0.30;;
39848;SDS011;25518;47.878;15.914;2023-12-22T06:29:42;0.50;;;0.10;;
39848;SDS011;25518;47.878;15.914;2023-12-22T06:32:33;0.63;;;0.20;;
39848;SDS011;25518;47.878;15.914;2023-12-22T06:35:24;0.28;;;0.20;;
39848;SDS011;25518;47.878;15.914;2023-12-22T06:38:16;0.40;;;0.20;;
39848;SDS011;25518;47.878;15.914;2023-12-22T06:41:17;2.10;;;0.45;;
39848;SDS011;25518;47.878;15.914;2023-12-22T06:44:09;0.10;;;0.10;;
39848;SDS011;25518;47.878;15.914;2023-12-22T06:47:01;0.52;;;0.30;;
39848;SDS011;25518;47.878;15.914;2023-12-22T06:49:52;1.55;;;0.60;;
39848;SDS011;25518;47.878;15.914;2023-12-22T06:52:44;0.68;;;0.28;;
39848;SDS011;25518;47.878;15.914;2023-12-22T06:55:36;0.50;;;0.10;;
39848;SDS011;25518;47.878;15.914;2023-12-22T06:58:27;1.02;;;0.50;;
39848;SDS011;25518;47.878;15.914;2023-12-22T07:01:21;0.40;;;0.20;;
39848;SDS011;25518;47.878;15.914;2023-12-22T07:04:14;0.95;;;0.15;;
39848;SDS011;25518;47.878;15.914;2023-12-22T07:07:05;1.85;;;0.43;;
39848;SDS011;25518;47.878;15.914;2023-12-22T07:09:57;1.20;;;0.20;;
39848;SDS011;25518;47.878;15.914;2023-12-22T07:12:48;0.80;;;0.13;;
39848;SDS011;25518;47.878;15.914;2023-12-22T07:15:39;0.20;;;0.20;;
39848;SDS011;25518;47.878;15.914;2023-12-22T07:18:31;0.60;;;0.20;;
39848;SDS011;25518;47.878;15.914;2023-12-22T07:21:22;0.57;;;0.28;;
39848;SDS011;25518;47.878;15.914;2023-12-22T07:24:13;0.30;;;0.10;;
39848;SDS011;25518;47.878;15.914;2023-12-22T07:27:06;0.15;;;0.10;;
39848;SDS011;25518;47.878;15.914;2023-12-22T07:29:58;0.60;;;0.20;;
39848;SDS011;25518;47.878;15.914;2023-12-22T07:32:49;0.63;;;0.30;;
39848;SDS011;25518;47.878;15.914;2023-12-22T07:35:43;0.10;;;0.00;;
39848;SDS011;25518;47.878;15.914;2023-12-22T07:38:34;0.25;;;0.10;;
39848;SDS011;25518;47.878;15.914;2023-12-22T07:41:26;0.25;;;0.25;;
39848;SDS011;25518;47.878;15.914;2023-12-22T07:44:18;2.80;;;0.20;;
39848;SDS011;25518;47.878;15.914;2023-12-22T07:47:09;0.60;;;0.30;;
39848;SDS011;25518;47.878;15.914;2023-12-22T07:50:01;0.70;;;0.40;;
39848;SDS011;25518;47.878;15.914;2023-12-22T07:52:52;0.30;;;0.10;;
39848;SDS011;25518;47.878;15.914;2023-12-22T07:55:38;1.17;;;0.28;;
39848;SDS011;25518;47.878;15.914;2023-12-22T07:58:30;0.53;;;0.10;;
39848;SDS011;25518;47.878;15.914;2023-12-22T08:01:22;0.32;;;0.22;;
39848;SDS011;25518;47.878;15.914;2023-12-22T08:04:14;0.03;;;0.00;;
39848;SDS011;25518;47.878;15.914;2023-12-22T08:07:05;0.10;;;0.00;;
39848;SDS011;25518;47.878;15.914;2023-12-22T08:09:57;0.13;;;0.13;;
39848;SDS011;25518;47.878;15.914;2023-12-22T08:12:48;0.55;;;0.15;;
39848;SDS011;25518;47.878;15.914;2023-12-22T08:15:39;0.10;;;0.10;;
39848;SDS011;25518;47.878;15.914;2023-12-22T08:18:32;0.55;;;0.35;;
39848;SDS011;25518;47.878;15.914;2023-12-22T08:21:23;1.10;;;0.30;;
39848;SDS011;25518;47.878;15.914;2023-12-22T08:24:14;0.70;;;0.40;;
39848;SDS011;25518;47.878;15.914;2023-12-22T08:27:06;0.45;;;0.05;;
39848;SDS011;25518;47.878;15.914;2023-12-22T08:29:57;0.35;;;0.15;;
39848;SDS011;25518;47.878;15.914;2023-12-22T08:32:49;1.10;;;0.40;;
39848;SDS011;25518;47.878;15.914;2023-12-22T08:35:41;2.00;;;0.40;;
39848;SDS011;25518;47.878;15.914;2023-12-22T08:38:32;0.70;;;0.30;;
39848;SDS011;25518;47.878;15.914;2023-12-22T08:41:24;1.20;;;0.20;;
39848;SDS011;25518;47.878;15.914;2023-12-22T08:44:15;0.47;;;0.38;;
39848;SDS011;25518;47.878;15.914;2023-12-22T08:47:06;1.85;;;0.20;;
39848;SDS011;25518;47.878;15.914;2023-12-22T08:49:58;0.05;;;0.00;;
39848;SDS011;25518;47.878;15.914;2023-12-22T08:52:49;1.30;;;0.20;;
39848;SDS011;25518;47.878;15.914;2023-12-22T08:55:41;0.20;;;0.10;;
39848;SDS011;25518;47.878;15.914;2023-12-22T08:58:32;0.70;;;0.30;;
39848;SDS011;25518;47.878;15.914;2023-12-22T09:01:24;1.00;;;0.30;;
39848;SDS011;25518;47.878;15.914;2023-12-22T09:04:15;1.45;;;0.30;;
39848;SDS011;25518;47.878;15.914;2023-12-22T09:07:07;0.28;;;0.25;;
39848;SDS011;25518;47.878;15.914;2023-12-22T09:09:58;0.10;;;0.10;;
39848;SDS011;25518;47.878;15.914;2023-12-22T09:12:50;0.60;;;0.20;;
39848;SDS011;25518;47.878;15.914;2023-12-22T09:15:41;0.90;;;0.30;;
39848;SDS011;25518;47.878;15.914;2023-12-22T09:18:33;0.57;;;0.30;;
39848;SDS011;25518;47.878;15.914;2023-12-22T09:21:24;0.73;;;0.30;;
39848;SDS011;25518;47.878;15.914;2023-12-22T09:24:16;0.65;;;0.22;;
39848;SDS011;25518;47.878;15.914;2023-12-22T09:27:08;0.37;;;0.20;;
39848;SDS011;25518;47.878;15.914;2023-12-22T09:30:00;1.35;;;0.65;;
39848;SDS011;25518;47.878;15.914;2023-12-22T09:32:51;1.40;;;0.40;;
39848;SDS011;25518;47.878;15.914;2023-12-22T09:35:43;0.60;;;0.15;;
39848;SDS011;25518;47.878;15.914;2023-12-22T09:38:34;0.85;;;0.15;;
39848;SDS011;25518;47.878;15.914;2023-12-22T09:41:26;0.75;;;0.20;;
39848;SDS011;25518;47.878;15.914;2023-12-22T09:44:19;0.70;;;0.30;;
39848;SDS011;25518;47.878;15.914;2023-12-22T09:47:11;1.20;;;0.30;;
39848;SDS011;25518;47.878;15.914;2023-12-22T09:50:04;0.30;;;0.20;;
39848;SDS011;25518;47.878;15.914;2023-12-22T09:52:57;2.10;;;0.30;;
39848;SDS011;25518;47.878;15.914;2023-12-22T09:55:51;1.20;;;0.22;;
39848;SDS011;25518;47.878;15.914;2023-12-22T09:58:44;0.20;;;0.10;;
39848;SDS011;25518;47.878;15.914;2023-12-22T10:01:37;1.02;;;0.28;;
39848;SDS011;25518;47.878;15.914;2023-12-22T10:04:33;1.38;;;0.40;;
39848;SDS011;25518;47.878;15.914;2023-12-22T10:07:26;0.30;;;0.20;;
39848;SDS011;25518;47.878;15.914;2023-12-22T10:10:18;1.38;;;0.45;;
39848;SDS011;25518;47.878;15.914;2023-12-22T10:13:12;0.20;;;0.20;;
39848;SDS011;25518;47.878;15.914;2023-12-22T10:16:04;0.20;;;0.17;;
39848;SDS011;25518;47.878;15.914;2023-12-22T10:18:58;1.77;;;0.50;;
39848;SDS011;25518;47.878;15.914;2023-12-22T10:21:50;0.80;;;0.30;;
39848;SDS011;25518;47.878;15.914;2023-12-22T10:24:43;1.10;;;0.20;;
39848;SDS011;25518;47.878;15.914;2023-12-22T10:27:37;2.33;;;0.20;;
39848;SDS011;25518;47.878;15.914;2023-12-22T10:30:32;0.60;;;0.20;;
39848;SDS011;25518;47.878;15.914;2023-12-22T10:33:24;0.20;;;0.20;;
39848;SDS011;25518;47.878;15.914;2023-12-22T10:36:15;0.40;;;0.25;;
39848;SDS011;25518;47.878;15.914;2023-12-22T10:39:07;0.50;;;0.20;;
39848;SDS011;25518;47.878;15.914;2023-12-22T10:41:59;0.40;;;0.20;;
39848;SDS011;25518;47.878;15.914;2023-12-22T10:44:51;1.20;;;0.30;;
39848;SDS011;25518;47.878;15.914;2023-12-22T10:47:43;0.10;;;0.10;;
39848;SDS011;25518;47.878;15.914;2023-12-22T10:50:35;0.50;;;0.20;;
39848;SDS011;25518;47.878;15.914;2023-12-22T10:53:26;0.10;;;0.10;;
39848;SDS011;25518;47.878;15.914;2023-12-22T10:56:18;0.50;;;0.10;;
39848;SDS011;25518;47.878;15.914;2023-12-22T10:59:11;0.20;;;0.20;;
39848;SDS011;25518;47.878;15.914;2023-12-22T11:02:02;0.40;;;0.30;;
39848;SDS011;25518;47.878;15.914;2023-12-22T11:07:56;1.20;;;0.20;;
39848;SDS011;25518;47.878;15.914;2023-12-22T11:10:56;0.60;;;0.00;;
39848;SDS011;25518;47.878;15.914;2023-12-22T11:13:51;0.25;;;0.20;;
39848;SDS011;25518;47.878;15.914;2023-12-22T11:16:44;0.00;;;0.00;;
39848;SDS011;25518;47.878;15.914;2023-12-22T11:19:39;0.68;;;0.30;;
39848;SDS011;25518;47.878;15.914;2023-12-22T11:22:32;0.50;;;0.20;;
39848;SDS011;25518;47.878;15.914;2023-12-22T11:25:26;0.00;;;0.00;;
39848;SDS011;25518;47.878;15.914;2023-12-22T11:28:18;0.10;;;0.10;;
39848;SDS011;25518;47.878;15.914;2023-12-22T11:31:12;0.20;;;0.08;;
39848;SDS011;25518;47.878;15.914;2023-12-22T11:34:04;5.20;;;0.15;;
39848;SDS011;25518;47.878;15.914;2023-12-22T11:36:58;1.00;;;0.37;;
39848;SDS011;25518;47.878;15.914;2023-12-22T11:39:50;0.70;;;0.20;;
39848;SDS011;25518;47.878;15.914;2023-12-22T11:42:45;0.13;;;0.13;;
39848;SDS011;25518;47.878;15.914;2023-12-22T11:45:41;0.70;;;0.10;;
39848;SDS011;25518;47.878;15.914;2023-12-22T11:48:34;2.07;;;0.30;;
39848;SDS011;25518;47.878;15.914;2023-12-22T11:51:31;0.57;;;0.10;;
39848;SDS011;25518;47.878;15.914;2023-12-22T11:54:55;1.40;;;0.23;;
39848;SDS011;25518;47.878;15.914;2023-12-22T11:57:45;0.32;;;0.10;;
39848;SDS011;25518;47.878;15.914;2023-12-22T12:03:29;0.08;;;0.03;;
39848;SDS011;25518;47.878;15.914;2023-12-22T12:06:30;0.30;;;0.20;;
39848;SDS011;25518;47.878;15.914;2023-12-22T12:09:44;0.40;;;0.10;;
39848;SDS011;25518;47.878;15.914;2023-12-22T12:12:36;0.00;;;0.00;;
39848;SDS011;25518;47.878;15.914;2023-12-22T12:15:28;1.33;;;0.43;;
39848;SDS011;25518;47.878;15.914;2023-12-22T12:18:21;0.10;;;0.10;;
39848;SDS011;25518;47.878;15.914;2023-12-22T12:21:15;0.82;;;0.08;;
39848;SDS011;25518;47.878;15.914;2023-12-22T12:24:08;0.40;;;0.30;;
39848;SDS011;25518;47.878;15.914;2023-12-22T12:26:59;1.58;;;0.32;;
39848;SDS011;25518;47.878;15.914;2023-12-22T12:29:51;0.30;;;0.10;;
39848;SDS011;25518;47.878;15.914;2023-12-22T12:32:43;0.40;;;0.20;;
39848;SDS011;25518;47.878;15.914;2023-12-22T12:35:36;0.60;;;0.20;;
39848;SDS011;25518;47.878;15.914;2023-12-22T12:39:09;0.50;;;0.03;;
39848;SDS011;25518;47.878;15.914;2023-12-22T12:42:01;0.20;;;0.10;;
39848;SDS011;25518;47.878;15.914;2023-12-22T12:44:56;0.27;;;0.07;;
39848;SDS011;25518;47.878;15.914;2023-12-22T12:47:55;0.57;;;0.30;;
39848;SDS011;25518;47.878;15.914;2023-12-22T12:50:49;0.50;;;0.20;;
39848;SDS011;25518;47.878;15.914;2023-12-22T12:53:40;0.20;;;0.10;;
39848;SDS011;25518;47.878;15.914;2023-12-22T12:56:47;1.40;;;0.20;;
39848;SDS011;25518;47.878;15.914;2023-12-22T12:59:39;0.40;;;0.15;;
39848;SDS011;25518;47.878;15.914;2023-12-22T13:02:36;0.50;;;0.20;;
39848;SDS011;25518;47.878;15.914;2023-12-22T13:05:27;0.60;;;0.10;;
39848;SDS011;25518;47.878;15.914;2023-12-22T13:08:19;0.68;;;0.22;;
39848;SDS011;25518;47.878;15.914;2023-12-22T13:11:10;0.57;;;0.22;;
39848;SDS011;25518;47.878;15.914;2023-12-22T13:14:02;0.60;;;0.40;;
39848;SDS011;25518;47.878;15.914;2023-12-22T13:16:53;0.77;;;0.38;;
39848;SDS011;25518;47.878;15.914;2023-12-22T13:19:47;0.80;;;0.30;;
39848;SDS011;25518;47.878;15.914;2023-12-22T13:22:39;0.40;;;0.20;;
39848;SDS011;25518;47.878;15.914;2023-12-22T13:25:39;0.22;;;0.10;;
39848;SDS011;25518;47.878;15.914;2023-12-22T13:28:30;1.10;;;0.30;;
39848;SDS011;25518;47.878;15.914;2023-12-22T13:31:22;0.10;;;0.10;;
39848;SDS011;25518;47.878;15.914;2023-12-22T13:34:13;0.77;;;0.38;;
39848;SDS011;25518;47.878;15.914;2023-12-22T13:37:05;0.30;;;0.10;;
39848;SDS011;25518;47.878;15.914;2023-12-22T13:39:56;0.80;;;0.25;;
39848;SDS011;25518;47.878;15.914;2023-12-22T13:42:56;0.25;;;0.10;;
39848;SDS011;25518;47.878;15.914;2023-12-22T13:45:49;0.10;;;0.00;;
39848;SDS011;25518;47.878;15.914;2023-12-22T13:48:42;0.60;;;0.20;;
39848;SDS011;25518;47.878;15.914;2023-12-22T13:51:42;3.03;;;0.60;;
39848;SDS011;25518;47.878;15.914;2023-12-22T13:54:35;0.60;;;0.20;;
39848;SDS011;25518;47.878;15.914;2023-12-22T13:57:26;1.08;;;0.30;;
39848;SDS011;25518;47.878;15.914;2023-12-22T14:03:10;1.17;;;0.32;;
39848;SDS011;25518;47.878;15.914;2023-12-22T14:06:01;0.10;;;0.00;;
39848;SDS011;25518;47.878;15.914;2023-12-22T14:08:54;0.28;;;0.17;;
39848;SDS011;25518;47.878;15.914;2023-12-22T14:11:45;0.30;;;0.10;;
39848;SDS011;25518;47.878;15.914;2023-12-22T14:14:38;0.10;;;0.00;;
39848;SDS011;25518;47.878;15.914;2023-12-22T14:17:30;1.67;;;0.30;;
39848;SDS011;25518;47.878;15.914;2023-12-22T14:20:23;2.75;;;0.82;;
39848;SDS011;25518;47.878;15.914;2023-12-22T14:23:18;0.30;;;0.10;;
39848;SDS011;25518;47.878;15.914;2023-12-22T14:26:13;0.20;;;0.15;;
39848;SDS011;25518;47.878;15.914;2023-12-22T14:29:07;0.10;;;0.10;;
39848;SDS011;25518;47.878;15.914;2023-12-22T14:31:58;0.90;;;0.00;;
39848;SDS011;25518;47.878;15.914;2023-12-22T14:34:50;0.17;;;0.15;;
39848;SDS011;25518;47.878;15.914;2023-12-22T14:37:41;0.60;;;0.10;;
39848;SDS011;25518;47.878;15.914;2023-12-22T14:40:33;0.10;;;0.00;;
39848;SDS011;25518;47.878;15.914;2023-12-22T14:43:25;0.50;;;0.10;;
39848;SDS011;25518;47.878;15.914;2023-12-22T14:46:18;0.20;;;0.10;;
39848;SDS011;25518;47.878;15.914;2023-12-22T14:49:11;0.00;;;0.00;;
39848;SDS011;25518;47.878;15.914;2023-12-22T14:52:03;0.63;;;0.28;;
39848;SDS011;25518;47.878;15.914;2023-12-22T14:54:57;0.10;;;0.03;;
39848;SDS011;25518;47.878;15.914;2023-12-22T14:57:52;0.80;;;0.20;;
39848;SDS011;25518;47.878;15.914;2023-12-22T15:00:47;0.60;;;0.40;;
39848;SDS011;25518;47.878;15.914;2023-12-22T15:03:43;0.00;;;0.00;;
39848;SDS011;25518;47.878;15.914;2023-12-22T15:06:40;0.13;;;0.10;;
39848;SDS011;25518;47.878;15.914;2023-12-22T15:09:40;0.00;;;0.00;;
39848;SDS011;25518;47.878;15.914;2023-12-22T15:12:33;0.00;;;0.00;;
39848;SDS011;25518;47.878;15.914;2023-12-22T15:15:28;0.40;;;0.20;;
39848;SDS011;25518;47.878;15.914;2023-12-22T15:18:20;0.60;;;0.43;;
39848;SDS011;25518;47.878;15.914;2023-12-22T15:21:27;1.13;;;0.82;;
39848;SDS011;25518;47.878;15.914;2023-12-22T15:24:20;2.20;;;1.10;;
39848;SDS011;25518;47.878;15.914;2023-12-22T15:27:12;3.55;;;1.55;;
39848;SDS011;25518;47.878;15.914;2023-12-22T15:30:04;14.45;;;4.53;;
39848;SDS011;25518;47.878;15.914;2023-12-22T15:32:59;8.70;;;3.25;;
39848;SDS011;25518;47.878;15.914;2023-12-22T15:35:53;2.72;;;1.50;;
39848;SDS011;25518;47.878;15.914;2023-12-22T15:38:46;1.77;;;1.20;;
39848;SDS011;25518;47.878;15.914;2023-12-22T15:41:37;5.27;;;1.77;;
39848;SDS011;25518;47.878;15.914;2023-12-22T15:44:28;7.37;;;2.80;;
39848;SDS011;25518;47.878;15.914;2023-12-22T15:47:20;4.47;;;2.20;;
39848;SDS011;25518;47.878;15.914;2023-12-22T15:50:12;12.00;;;4.97;;
39848;SDS011;25518;47.878;15.914;2023-12-22T15:53:03;12.50;;;5.85;;
39848;SDS011;25518;47.878;15.914;2023-12-22T15:55:54;13.63;;;6.25;;
39848;SDS011;25518;47.878;15.914;2023-12-22T15:58:47;12.97;;;4.83;;
39848;SDS011;25518;47.878;15.914;2023-12-22T16:01:42;9.80;;;3.93;;
39848;SDS011;25518;47.878;15.914;2023-12-22T16:04:34;9.85;;;3.75;;
39848;SDS011;25518;47.878;15.914;2023-12-22T16:07:27;6.70;;;2.90;;
39848;SDS011;25518;47.878;15.914;2023-12-22T16:10:18;6.90;;;2.92;;
39848;SDS011;25518;47.878;15.914;2023-12-22T16:13:10;8.23;;;2.95;;
39848;SDS011;25518;47.878;15.914;2023-12-22T16:16:03;10.50;;;4.22;;
39848;SDS011;25518;47.878;15.914;2023-12-22T16:18:55;6.63;;;2.40;;
39848;SDS011;25518;47.878;15.914;2023-12-22T16:21:46;6.00;;;2.97;;
39848;SDS011;25518;47.878;15.914;2023-12-22T16:24:42;6.32;;;2.50;;
39848;SDS011;25518;47.878;15.914;2023-12-22T16:27:34;4.32;;;2.33;;
39848;SDS011;25518;47.878;15.914;2023-12-22T16:30:26;4.82;;;2.10;;
39848;SDS011;25518;47.878;15.914;2023-12-22T16:33:18;5.13;;;1.77;;
39848;SDS011;25518;47.878;15.914;2023-12-22T16:36:09;4.07;;;2.05;;
39848;SDS011;25518;47.878;15.914;2023-12-22T16:39:01;3.75;;;1.90;;
39848;SDS011;25518;47.878;15.914;2023-12-22T16:41:52;2.90;;;1.42;;
39848;SDS011;25518;47.878;15.914;2023-12-22T16:44:44;2.15;;;1.00;;
39848;SDS011;25518;47.878;15.914;2023-12-22T16:47:36;2.50;;;0.90;;
39848;SDS011;25518;47.878;15.914;2023-12-22T16:50:28;1.65;;;0.88;;
39848;SDS011;25518;47.878;15.914;2023-12-22T16:53:20;0.93;;;0.73;;
39848;SDS011;25518;47.878;15.914;2023-12-22T16:56:11;0.65;;;0.38;;
39848;SDS011;25518;47.878;15.914;2023-12-22T16:59:03;0.30;;;0.20;;
39848;SDS011;25518;47.878;15.914;2023-12-22T17:01:54;2.35;;;0.95;;
39848;SDS011;25518;47.878;15.914;2023-12-22T17:04:46;3.05;;;1.70;;
39848;SDS011;25518;47.878;15.914;2023-12-22T17:07:37;1.52;;;1.02;;
39848;SDS011;25518;47.878;15.914;2023-12-22T17:10:28;0.63;;;0.30;;
39848;SDS011;25518;47.878;15.914;2023-12-22T17:13:19;0.00;;;0.00;;
39848;SDS011;25518;47.878;15.914;2023-12-22T17:16:11;0.10;;;0.10;;